createdAt,value
2022-09-15T00:01:31.885Z,9.32
2022-09-15T00:04:00.204Z,9.10
2022-09-15T00:06:28.524Z,8.80
2022-09-15T00:08:59.385Z,8.40
2022-09-15T00:11:31.180Z,8.00
2022-09-15T00:14:02.231Z,8.55
2022-09-15T00:16:32.231Z,8.20
2022-09-15T00:19:01.806Z,7.63
2022-09-15T00:21:32.185Z,6.95
2022-09-15T00:24:03.593Z,7.72
2022-09-15T00:26:33.236Z,6.87
2022-09-15T00:29:02.221Z,6.53
2022-09-15T00:31:32.179Z,6.68
2022-09-15T00:34:03.931Z,6.95
2022-09-15T00:36:32.667Z,6.65
2022-09-15T00:39:02.735Z,6.05
2022-09-15T00:41:31.210Z,5.53
2022-09-15T00:44:01.045Z,5.75
2022-09-15T00:46:32.477Z,5.00
2022-09-15T00:49:10.853Z,5.22
2022-09-15T00:51:42.905Z,4.65
2022-09-15T00:54:16.731Z,4.10
2022-09-15T00:56:48.062Z,4.03
2022-09-15T00:59:19.814Z,3.90
2022-09-15T01:01:51.608Z,3.65
2022-09-15T01:04:20.191Z,4.07
2022-09-15T01:06:51.869Z,4.00
2022-09-15T01:09:29.523Z,4.38
2022-09-15T01:11:58.198Z,3.58
2022-09-15T01:14:26.674Z,3.88
2022-09-15T01:17:01.688Z,4.00
2022-09-15T01:20:06.183Z,3.63
2022-09-15T01:22:42.371Z,4.05
2022-09-15T01:25:27.518Z,3.88
2022-09-15T01:28:24.426Z,4.10
2022-09-15T01:31:00.592Z,3.47
2022-09-15T01:33:34.159Z,3.65
2022-09-15T01:36:12.857Z,3.90
2022-09-15T01:38:51.734Z,3.88
2022-09-15T01:41:26.051Z,3.90
2022-09-15T01:44:13.515Z,3.70
2022-09-15T01:46:47.758Z,2.95
2022-09-15T01:49:20.767Z,3.00
2022-09-15T01:51:52.470Z,3.30
2022-09-15T01:54:25.526Z,2.60
2022-09-15T01:56:54.164Z,2.50
2022-09-15T01:59:22.615Z,2.38
2022-09-15T02:01:59.287Z,2.47
2022-09-15T02:04:32.205Z,2.63
2022-09-15T02:07:07.491Z,2.33
2022-09-15T02:09:39.847Z,2.05
2022-09-15T02:14:50.380Z,2.08
2022-09-15T02:17:22.146Z,2.38
2022-09-15T02:19:53.870Z,2.50
2022-09-15T02:22:27.949Z,2.42
2022-09-15T02:25:02.280Z,2.20
2022-09-15T02:27:33.882Z,2.00
2022-09-15T02:30:06.663Z,2.40
2022-09-15T02:32:39.066Z,2.20
2022-09-15T02:37:38.963Z,2.58
2022-09-15T02:40:08.703Z,1.92
2022-09-15T02:42:37.381Z,2.72
2022-09-15T02:45:06.260Z,2.35
2022-09-15T02:47:35.883Z,2.17
2022-09-15T02:50:04.129Z,2.80
2022-09-15T02:52:32.275Z,2.00
2022-09-15T02:55:01.023Z,2.33
2022-09-15T02:57:29.204Z,2.38
2022-09-15T03:00:17.386Z,1.92
2022-09-15T03:02:50.461Z,2.33
2022-09-15T03:05:21.405Z,2.50
2022-09-15T03:07:50.030Z,1.85
2022-09-15T03:10:18.651Z,2.30
2022-09-15T03:12:49.402Z,2.22
2022-09-15T03:15:20.174Z,2.42
2022-09-15T03:17:50.583Z,4.22
2022-09-15T03:20:21.635Z,2.30
2022-09-15T03:22:50.921Z,1.95
2022-09-15T03:25:20.866Z,2.17
2022-09-15T03:27:49.208Z,2.83
2022-09-15T03:30:17.862Z,2.38
2022-09-15T03:32:46.347Z,2.10
2022-09-15T03:35:16.281Z,2.70
2022-09-15T03:37:44.837Z,2.70
2022-09-15T03:40:13.142Z,2.90
2022-09-15T03:42:41.602Z,2.20
2022-09-15T03:45:10.889Z,2.78
2022-09-15T03:47:39.335Z,2.67
2022-09-15T03:50:08.080Z,2.25
2022-09-15T03:52:37.679Z,2.47
2022-09-15T03:55:06.711Z,2.42
2022-09-15T03:57:34.999Z,2.00
2022-09-15T04:00:04.266Z,2.60
2022-09-15T04:02:33.028Z,2.15
2022-09-15T04:05:02.748Z,2.35
2022-09-15T04:07:31.318Z,2.42
2022-09-15T04:10:01.653Z,2.20
2022-09-15T04:12:32.435Z,2.67
2022-09-15T04:15:01.255Z,2.33
2022-09-15T04:17:29.591Z,2.60
2022-09-15T04:19:57.827Z,2.22
2022-09-15T04:22:26.091Z,2.08
2022-09-15T04:24:54.605Z,2.47
2022-09-15T04:27:24.294Z,2.40
2022-09-15T04:29:52.982Z,2.60
2022-09-15T04:32:22.694Z,2.65
2022-09-15T04:34:51.217Z,3.03
2022-09-15T04:37:19.624Z,2.97
2022-09-15T04:39:48.531Z,2.63
2022-09-15T04:42:17.255Z,2.80
2022-09-15T04:44:47.110Z,2.60
2022-09-15T04:47:15.269Z,2.55
2022-09-15T04:49:43.558Z,3.05
2022-09-15T04:52:11.791Z,2.90
2022-09-15T04:54:39.924Z,2.30
2022-09-15T04:57:08.191Z,2.45
2022-09-15T04:59:36.618Z,2.40
2022-09-15T05:02:06.354Z,2.63
2022-09-15T05:04:35.108Z,2.75
2022-09-15T05:07:03.447Z,2.60
2022-09-15T05:09:31.615Z,2.20
2022-09-15T05:12:00.096Z,2.20
2022-09-15T05:14:28.301Z,2.83
2022-09-15T05:16:56.425Z,2.38
2022-09-15T05:19:26.382Z,2.15
2022-09-15T05:21:54.853Z,2.33
2022-09-15T05:24:23.346Z,2.15
2022-09-15T05:26:51.560Z,2.03
2022-09-15T05:29:19.686Z,2.33
2022-09-15T05:31:48.267Z,2.42
2022-09-15T05:34:16.802Z,2.88
2022-09-15T05:36:46.363Z,1.92
2022-09-15T05:39:14.891Z,2.53
2022-09-15T05:41:43.028Z,2.42
2022-09-15T05:44:11.611Z,2.55
2022-09-15T05:46:40.888Z,2.25
2022-09-15T05:49:09.173Z,2.20
2022-09-15T05:51:37.868Z,2.55
2022-09-15T05:54:07.756Z,2.22
2022-09-15T05:56:35.931Z,2.70
2022-09-15T05:59:05.270Z,1.77
2022-09-15T06:01:33.667Z,2.45
2022-09-15T06:04:02.146Z,1.98
2022-09-15T06:06:33.333Z,2.20
2022-09-15T06:09:01.836Z,2.25
2022-09-15T06:11:33.872Z,1.67
2022-09-15T06:14:06.055Z,3.60
2022-09-15T06:16:36.380Z,2.35
2022-09-15T06:19:04.873Z,2.80
2022-09-15T06:21:34.243Z,2.65
2022-09-15T06:24:04.628Z,1.98
2022-09-15T06:26:35.063Z,1.85
2022-09-15T06:29:05.989Z,2.38
2022-09-15T06:31:35.796Z,1.77
2022-09-15T06:34:05.519Z,1.90
2022-09-15T06:36:34.006Z,1.98
2022-09-15T06:39:02.924Z,2.17
2022-09-15T06:41:52.587Z,2.08
2022-09-15T06:44:20.967Z,2.13
2022-09-15T06:46:49.916Z,2.15
2022-09-15T06:49:18.205Z,2.28
2022-09-15T06:51:46.667Z,1.88
2022-09-15T06:54:16.258Z,2.17
2022-09-15T06:56:45.609Z,1.83
2022-09-15T06:59:14.571Z,2.15
2022-09-15T07:01:45.033Z,2.10
2022-09-15T07:04:13.287Z,2.28
2022-09-15T07:06:41.473Z,1.60
2022-09-15T07:09:09.639Z,1.80
2022-09-15T07:11:37.818Z,2.35
2022-09-15T07:14:06.490Z,2.15
2022-09-15T07:16:35.074Z,2.55
2022-09-15T07:19:06.056Z,2.30
2022-09-15T07:21:35.724Z,1.60
2022-09-15T07:24:07.169Z,2.05
2022-09-15T07:26:36.217Z,1.67
2022-09-15T07:29:06.844Z,1.63
2022-09-15T07:31:37.863Z,2.05
2022-09-15T07:34:08.581Z,1.73
2022-09-15T07:36:37.135Z,2.17
2022-09-15T07:39:06.860Z,1.85
2022-09-15T07:41:36.804Z,1.70
2022-09-15T07:44:08.132Z,1.80
2022-09-15T07:46:36.549Z,2.75
2022-09-15T07:49:06.633Z,1.90
2022-09-15T07:51:36.252Z,1.85
2022-09-15T07:54:04.927Z,1.77
2022-09-15T07:56:33.417Z,2.17
2022-09-15T07:59:01.597Z,1.83
2022-09-15T08:01:29.969Z,1.40
2022-09-15T08:03:58.199Z,2.20
2022-09-15T08:06:27.814Z,1.67
2022-09-15T08:09:00.776Z,1.90
2022-09-15T08:11:30.223Z,1.88
2022-09-15T08:14:02.873Z,1.48
2022-09-15T08:16:31.160Z,2.17
2022-09-15T08:19:00.333Z,1.73
2022-09-15T08:21:29.235Z,1.95
2022-09-15T08:24:01.397Z,2.40
2022-09-15T08:28:59.322Z,1.80
2022-09-15T08:31:27.858Z,2.28
2022-09-15T08:33:57.227Z,2.20
2022-09-15T08:36:28.074Z,2.08
2022-09-15T08:38:58.442Z,2.03
2022-09-15T08:41:30.766Z,1.98
2022-09-15T08:44:08.408Z,1.98
2022-09-15T08:46:41.964Z,1.77
2022-09-15T08:49:40.992Z,1.88
2022-09-15T08:52:17.277Z,2.15
2022-09-15T08:54:47.215Z,2.63
2022-09-15T08:57:21.423Z,2.00
2022-09-15T08:59:49.676Z,2.15
2022-09-15T09:02:56.186Z,1.92
2022-09-15T09:05:47.267Z,1.98
2022-09-15T09:08:47.789Z,1.88
2022-09-15T09:11:24.162Z,1.98
2022-09-15T09:14:03.685Z,2.03
2022-09-15T09:16:41.945Z,2.60
2022-09-15T09:19:21.370Z,1.85
2022-09-15T09:21:55.441Z,2.05
2022-09-15T09:24:34.346Z,2.17
2022-09-15T09:27:05.336Z,1.80
2022-09-15T09:29:40.212Z,1.95
2022-09-15T09:32:21.676Z,1.83
2022-09-15T09:35:00.041Z,2.22
2022-09-15T09:37:28.957Z,1.95
2022-09-15T09:39:57.361Z,1.80
2022-09-15T09:42:31.745Z,1.90
2022-09-15T09:45:00.112Z,2.00
2022-09-15T09:47:30.552Z,2.13
2022-09-15T09:49:59.907Z,2.17
2022-09-15T09:52:36.271Z,2.50
2022-09-15T09:55:21.679Z,2.20
2022-09-15T09:57:52.187Z,1.63
2022-09-15T10:00:33.658Z,1.92
2022-09-15T10:03:11.817Z,1.80
2022-09-15T10:05:40.272Z,1.70
2022-09-15T10:08:08.697Z,2.00
2022-09-15T10:10:37.231Z,1.65
2022-09-15T10:13:06.896Z,2.00
2022-09-15T10:15:37.594Z,1.83
2022-09-15T10:18:05.895Z,2.25
2022-09-15T10:20:47.813Z,2.13
2022-09-15T10:23:26.761Z,2.08
2022-09-15T10:25:59.987Z,1.85
2022-09-15T10:28:30.331Z,1.90
2022-09-15T10:31:07.769Z,2.10
2022-09-15T10:33:37.250Z,2.17
2022-09-15T10:36:08.896Z,2.13
2022-09-15T10:38:44.103Z,1.95
2022-09-15T10:41:23.394Z,2.20
2022-09-15T10:44:19.462Z,1.80
2022-09-15T10:46:56.522Z,1.90
2022-09-15T10:49:42.067Z,1.40
2022-09-15T10:52:19.093Z,1.65
2022-09-15T10:55:09.094Z,1.73
2022-09-15T10:57:58.589Z,2.13
2022-09-15T11:00:35.271Z,2.20
2022-09-15T11:03:38.753Z,2.00
2022-09-15T11:06:18.431Z,2.70
2022-09-15T11:09:08.195Z,2.85
2022-09-15T11:11:50.101Z,2.63
2022-09-15T11:14:33.342Z,2.58
2022-09-15T11:17:14.813Z,2.42
2022-09-15T11:19:57.933Z,2.13
2022-09-15T11:22:31.683Z,1.85
2022-09-15T11:25:03.838Z,2.15
2022-09-15T11:30:07.533Z,1.80
2022-09-15T11:32:42.609Z,1.73
2022-09-15T11:35:43.639Z,1.83
2022-09-15T11:38:26.640Z,1.90
2022-09-15T11:40:59.942Z,1.48
2022-09-15T11:43:36.083Z,1.65
2022-09-15T11:46:10.829Z,2.30
2022-09-15T11:48:46.491Z,1.63
2022-09-15T11:51:21.595Z,1.40
2022-09-15T11:53:56.991Z,2.05
2022-09-15T11:56:30.502Z,1.70
2022-09-15T11:59:09.362Z,1.80
2022-09-15T12:01:46.997Z,1.90
2022-09-15T12:04:23.149Z,1.48
2022-09-15T12:09:31.653Z,1.80
2022-09-15T12:12:05.848Z,1.33
2022-09-15T12:14:36.827Z,1.42
2022-09-15T12:17:08.295Z,1.88
2022-09-15T12:19:49.991Z,1.98
2022-09-15T12:22:24.669Z,1.90
2022-09-15T12:25:01.282Z,1.88
2022-09-15T12:27:30.329Z,1.90
2022-09-15T12:30:00.817Z,1.75
2022-09-15T12:32:30.582Z,2.00
2022-09-15T12:35:31.170Z,2.08
2022-09-15T12:38:01.486Z,1.95
2022-09-15T12:40:36.582Z,1.92
2022-09-15T12:43:20.157Z,2.35
2022-09-15T12:45:56.218Z,2.15
2022-09-15T12:48:28.293Z,2.50
2022-09-15T12:53:31.484Z,1.70
2022-09-15T12:56:01.992Z,1.40
2022-09-15T12:58:36.540Z,1.17
2022-09-15T13:01:33.040Z,0.90
2022-09-15T13:04:26.586Z,0.75
2022-09-15T13:07:33.986Z,0.90
2022-09-15T13:10:27.844Z,0.80
2022-09-15T13:13:14.681Z,0.70
2022-09-15T13:15:46.892Z,0.47
2022-09-15T13:18:17.239Z,0.80
2022-09-15T13:20:53.367Z,0.90
2022-09-15T13:23:25.957Z,0.88
2022-09-15T13:25:59.120Z,0.80
2022-09-15T13:28:28.471Z,0.85
2022-09-15T13:31:09.341Z,1.20
2022-09-15T13:40:47.063Z,0.80
2022-09-15T13:43:41.723Z,0.85
2022-09-15T13:46:23.040Z,0.68
2022-09-15T13:49:08.235Z,0.90
2022-09-15T13:51:40.514Z,0.70
2022-09-15T13:54:17.083Z,0.70
2022-09-15T13:56:46.870Z,0.70
2022-09-15T13:59:19.765Z,0.90
2022-09-15T14:01:48.287Z,1.20
2022-09-15T14:04:19.213Z,0.80
2022-09-15T14:06:50.258Z,1.13
2022-09-15T14:09:21.519Z,1.10
2022-09-15T14:11:52.281Z,0.90
2022-09-15T14:14:37.151Z,0.60
2022-09-15T14:17:05.776Z,1.00
2022-09-15T14:19:36.553Z,1.02
2022-09-15T14:22:26.219Z,0.90
2022-09-15T14:24:55.206Z,0.68
2022-09-15T14:27:25.933Z,1.08
2022-09-15T14:29:58.016Z,0.73
2022-09-15T14:34:59.823Z,0.95
2022-09-15T14:37:31.704Z,0.77
2022-09-15T14:40:01.610Z,0.93
2022-09-15T14:42:32.640Z,0.98
2022-09-15T14:48:03.301Z,0.80
2022-09-15T14:50:33.589Z,1.00
2022-09-15T14:53:05.891Z,0.63
2022-09-15T14:55:40.224Z,0.88
2022-09-15T14:58:13.935Z,1.50
2022-09-15T15:00:52.062Z,1.00
2022-09-15T15:03:28.564Z,0.80
2022-09-15T15:06:25.330Z,1.10
2022-09-15T15:08:53.782Z,0.73
2022-09-15T15:11:23.305Z,1.05
2022-09-15T15:13:53.868Z,0.93
2022-09-15T15:16:26.138Z,1.00
2022-09-15T15:21:48.241Z,0.77
2022-09-15T15:24:20.197Z,1.30
2022-09-15T15:26:49.974Z,1.10
2022-09-15T15:29:44.231Z,1.05
2022-09-15T15:32:16.463Z,1.10
2022-09-15T15:37:27.386Z,1.45
2022-09-15T15:39:56.553Z,0.88
2022-09-15T15:42:25.766Z,1.23
2022-09-15T15:45:06.268Z,1.23
2022-09-15T15:47:38.380Z,1.20
2022-09-15T15:50:14.724Z,1.27
2022-09-15T15:52:43.957Z,1.20
2022-09-15T15:55:15.808Z,1.20
2022-09-15T15:57:45.441Z,1.00
2022-09-15T16:00:22.987Z,1.20
2022-09-15T16:02:54.609Z,0.90
2022-09-15T16:05:27.098Z,1.40
2022-09-15T16:07:57.303Z,1.10
2022-09-15T16:10:30.931Z,1.00
2022-09-15T16:12:59.677Z,1.08
2022-09-15T16:15:28.377Z,1.00
2022-09-15T16:17:58.054Z,0.82
2022-09-15T16:20:28.788Z,1.40
2022-09-15T16:22:57.100Z,1.10
2022-09-15T16:25:34.450Z,1.20
2022-09-15T16:28:04.164Z,1.00
2022-09-15T16:30:33.053Z,1.10
2022-09-15T16:33:02.907Z,1.38
2022-09-15T16:35:36.227Z,1.10
2022-09-15T16:38:04.759Z,1.17
2022-09-15T16:40:32.979Z,1.00
2022-09-15T16:43:01.980Z,1.35
2022-09-15T16:45:38.018Z,1.02
2022-09-15T16:48:12.749Z,1.00
2022-09-15T16:50:50.309Z,1.83
2022-09-15T16:53:31.026Z,1.55
2022-09-15T16:55:59.413Z,1.50
2022-09-15T16:58:28.201Z,1.30
2022-09-15T17:00:56.717Z,1.10
2022-09-15T17:03:27.779Z,1.20
2022-09-15T17:05:57.542Z,1.42
2022-09-15T17:08:29.556Z,1.15
2022-09-15T17:10:59.458Z,1.00
2022-09-15T17:13:30.372Z,1.45
2022-09-15T17:15:59.652Z,1.02
2022-09-15T17:18:30.808Z,1.33
2022-09-15T17:20:58.993Z,1.05
2022-09-15T17:23:28.966Z,1.05
2022-09-15T17:26:00.158Z,1.27
2022-09-15T17:28:30.393Z,1.05
2022-09-15T17:31:00.254Z,1.58
2022-09-15T17:33:31.238Z,1.15
2022-09-15T17:35:59.848Z,1.17
2022-09-15T17:38:28.306Z,0.85
2022-09-15T17:40:56.882Z,1.20
2022-09-15T17:43:28.476Z,1.10
2022-09-15T17:45:57.248Z,0.88
2022-09-15T17:48:25.716Z,0.80
2022-09-15T17:50:55.917Z,1.17
2022-09-15T17:53:27.698Z,1.20
2022-09-15T17:55:57.262Z,1.20
2022-09-15T17:58:26.731Z,0.90
2022-09-15T18:00:55.676Z,1.27
2022-09-15T18:03:28.224Z,1.73
2022-09-15T18:05:59.609Z,1.23
2022-09-15T18:08:29.010Z,1.07
2022-09-15T18:10:57.398Z,1.33
2022-09-15T18:13:27.690Z,1.08
2022-09-15T18:15:56.598Z,1.20
2022-09-15T18:18:26.581Z,1.70
2022-09-15T18:20:57.942Z,1.00
2022-09-15T18:23:29.626Z,1.07
2022-09-15T18:25:58.369Z,1.13
2022-09-15T18:28:26.625Z,1.20
2022-09-15T18:30:57.881Z,1.13
2022-09-15T18:33:27.557Z,1.23
2022-09-15T18:35:59.011Z,1.17
2022-09-15T18:38:29.022Z,1.20
2022-09-15T18:40:58.375Z,1.35
2022-09-15T18:43:28.716Z,1.02
2022-09-15T18:46:00.047Z,0.95
2022-09-15T18:48:29.117Z,1.00
2022-09-15T18:50:57.744Z,1.15
2022-09-15T18:53:26.322Z,1.20
2022-09-15T18:55:55.931Z,1.17
2022-09-15T18:58:24.152Z,1.00
2022-09-15T19:00:52.185Z,2.00
2022-09-15T19:03:20.592Z,1.60
2022-09-15T19:05:48.641Z,1.95
2022-09-15T19:08:17.043Z,1.40
2022-09-15T19:10:45.243Z,1.90
2022-09-15T19:13:15.902Z,1.88
2022-09-15T19:15:44.713Z,1.80
2022-09-15T19:18:13.119Z,2.05
2022-09-15T19:20:42.276Z,2.10
2022-09-15T19:23:10.813Z,2.20
2022-09-15T19:25:39.124Z,1.52
2022-09-15T19:28:07.264Z,1.52
2022-09-15T19:30:36.997Z,1.80
2022-09-15T19:33:05.666Z,1.70
2022-09-15T19:35:34.346Z,1.67
2022-09-15T19:38:03.009Z,1.52
2022-09-15T19:40:31.620Z,2.20
2022-09-15T19:42:59.828Z,1.48
2022-09-15T19:45:28.322Z,1.40
2022-09-15T19:47:58.588Z,1.67
2022-09-15T19:50:26.722Z,1.30
2022-09-15T19:52:58.963Z,1.50
2022-09-15T19:55:28.911Z,1.45
2022-09-15T19:57:57.972Z,1.52
2022-09-15T20:00:26.785Z,1.30
2022-09-15T20:02:55.038Z,1.75
2022-09-15T20:05:34.713Z,1.80
2022-09-15T20:08:03.814Z,1.98
2022-09-15T20:10:32.007Z,1.90
2022-09-15T20:13:05.566Z,1.35
2022-09-15T20:15:33.750Z,1.60
2022-09-15T20:18:02.290Z,1.88
2022-09-15T20:20:32.874Z,1.98
2022-09-15T20:23:01.123Z,1.67
2022-09-15T20:25:32.679Z,1.55
2022-09-15T20:28:01.206Z,1.53
2022-09-15T20:30:29.454Z,1.85
2022-09-15T20:32:58.311Z,1.70
2022-09-15T20:35:26.635Z,1.80
2022-09-15T20:37:56.245Z,1.33
2022-09-15T20:40:24.495Z,1.15
2022-09-15T20:42:53.150Z,1.73
2022-09-15T20:45:21.499Z,1.50
2022-09-15T20:48:05.184Z,1.50
2022-09-15T20:50:33.855Z,1.70
2022-09-15T20:53:03.643Z,1.70
2022-09-15T20:55:32.073Z,1.52
2022-09-15T20:58:00.508Z,1.40
2022-09-15T21:00:33.660Z,1.88
2022-09-15T21:03:02.350Z,2.00
2022-09-15T21:05:30.479Z,1.75
2022-09-15T21:07:58.745Z,1.35
2022-09-15T21:10:42.157Z,1.60
2022-09-15T21:13:10.421Z,1.52
2022-09-15T21:15:38.603Z,1.40
2022-09-15T21:18:06.957Z,2.47
2022-09-15T21:20:38.338Z,1.60
2022-09-15T21:23:12.532Z,2.00
2022-09-15T21:25:42.334Z,1.98
2022-09-15T21:28:10.670Z,1.88
2022-09-15T21:30:39.020Z,1.83
2022-09-15T21:33:13.483Z,2.28
2022-09-15T21:35:42.550Z,2.15
2022-09-15T21:38:11.318Z,1.80
2022-09-15T21:40:39.450Z,1.85
2022-09-15T21:43:10.627Z,2.00
2022-09-15T21:45:39.147Z,1.75
2022-09-15T21:48:07.430Z,1.73
2022-09-15T21:50:36.395Z,1.83
2022-09-15T21:53:05.053Z,1.75
2022-09-15T21:55:43.025Z,1.95
2022-09-15T21:58:12.552Z,1.30
2022-09-15T22:00:41.295Z,1.67
2022-09-15T22:03:10.877Z,1.67
2022-09-15T22:05:44.133Z,1.67
2022-09-15T22:08:21.754Z,1.10
2022-09-15T22:10:49.905Z,1.83
2022-09-15T22:13:19.333Z,2.25
2022-09-15T22:15:47.462Z,1.70
2022-09-15T22:18:15.466Z,1.98
2022-09-15T22:20:43.789Z,1.60
2022-09-15T22:23:11.874Z,1.58
2022-09-15T22:25:39.919Z,1.08
2022-09-15T22:28:07.988Z,1.48
2022-09-15T22:30:37.544Z,1.23
2022-09-15T22:33:05.682Z,1.60
2022-09-15T22:35:33.753Z,1.55
2022-09-15T22:38:01.794Z,1.55
2022-09-15T22:40:31.108Z,1.60
2022-09-15T22:43:02.368Z,1.50
2022-09-15T22:45:30.422Z,1.40
2022-09-15T22:48:00.273Z,1.60
2022-09-15T22:50:28.442Z,1.30
2022-09-15T22:52:56.831Z,1.67
2022-09-15T22:55:25.590Z,1.33
2022-09-15T22:57:53.787Z,1.10
2022-09-15T23:00:23.091Z,1.10
2022-09-15T23:02:51.949Z,1.63
2022-09-15T23:05:21.454Z,0.90
2022-09-15T23:07:49.502Z,1.70
2022-09-15T23:10:18.360Z,1.00
2022-09-15T23:12:46.465Z,1.10
2022-09-15T23:15:19.885Z,1.30
2022-09-15T23:17:48.195Z,1.00
2022-09-15T23:20:16.588Z,1.67
2022-09-15T23:22:45.948Z,2.13
2022-09-15T23:25:14.547Z,1.95
2022-09-15T23:27:52.122Z,0.90
2022-09-15T23:30:20.259Z,1.83
2022-09-15T23:32:48.354Z,2.25
2022-09-15T23:35:16.774Z,1.65
2022-09-15T23:37:46.246Z,1.70
2022-09-15T23:40:14.500Z,1.38
2022-09-15T23:42:42.614Z,1.30
2022-09-15T23:45:11.536Z,2.17
2022-09-15T23:47:39.845Z,2.00
2022-09-15T23:50:08.607Z,1.23
2022-09-15T23:52:39.965Z,1.27
2022-09-15T23:55:10.482Z,1.50
2022-09-15T23:57:38.699Z,1.15
